Latest Weather Observations for Mullion

IDN60901

Issued at 1:11 am EST Thursday 1 October 2020 (issued every 10 minutes, with the page automatically refreshed every 10 minutes)

About weather observations | Map of Canberra area stations | Latest observations for Canberra area | Other Formats
Station Details ID: 250070 Name: MULLION (PCS) Lat: -35.11 Lon: 148.85 Height: 750.0 m

Portable automatic weather stations (PAWS) are operated by other organisations, such as Fire and Emergency Services, and are included here by agreement. Portable stations may be deployed to a location for a short period and their location may be subject to change without notice. Wind observations from these stations are provided from heights of either three (3) or ten (10) metres above ground level (AGL).

Data from the previous 72 hours. | See also: Recent months for locations in Aust Capital Territory
Date/Time
EST
Temp
°C
App
Temp
°C
Dew
Point
°C
Rel
Hum
%
Delta-T
°C
Wind Press
QNH
hPa
Press
MSL
hPa
Rain since
9am
mm
Dir  Spd
km/h
Gust
km/h
Spd
kts
Gust
kts
01/01:00am 10.8 - 10.9 - - NW 48 56 26 30 1011.9 - 8.8
01/12:50am 10.8 - 10.9 - - NW 37 44 20 24 1012.0 - 8.4
01/12:40am 10.9 3.0 10.9 100 0.0 NW 43 43 23 23 1012.7 - 7.4
01/12:30am 10.9 - 11.0 - - NW 48 54 26 29 1011.9 - 7.4
01/12:20am 10.9 - 11.0 - - NW 46 52 25 28 1012.2 - 7.0
01/12:10am 10.9 - 11.0 - - NW 46 52 25 28 1011.9 - 7.0
01/12:00am 10.9 - 11.0 - - NW 41 46 22 25 1011.9 - 7.0
 
Date/Time
EST
Temp
°C
App
Temp
°C
Dew
Point
°C
Rel
Hum
%
Delta-T
°C
Wind Press
QNH
hPa
Press
MSL
hPa
Rain since
9am
mm
Dir  Spd
km/h
Gust
km/h
Spd
kts
Gust
kts
30/11:50pm 10.9 - 11.0 - - NW 46 52 25 28 1012.3 - 7.0
30/11:40pm 10.9 - 11.0 - - NW 46 52 25 28 1012.3 - 6.8
30/11:30pm 10.9 3.0 10.9 100 0.0 NW 43 50 23 27 1012.3 - 6.6
30/11:20pm 11.0 2.2 11.0 100 0.0 NW 48 54 26 29 1012.2 - 6.2
30/11:10pm 11.1 2.0 11.1 100 0.0 NW 50 59 27 32 1012.6 - 5.4
30/11:00pm 11.1 - 11.2 - - NW 43 50 23 27 1012.8 - 5.4
30/10:50pm 11.0 3.9 11.0 100 0.0 NW 39 44 21 24 1013.3 - 5.4
30/10:40pm 10.9 - 11.0 - - NW 48 54 26 29 1013.1 - 5.4
30/10:30pm 10.9 - 11.0 - - NW 44 56 24 30 1012.3 - 5.2
30/10:20pm 10.9 - 11.0 - - NW 48 54 26 29 1012.8 - 5.2
30/10:10pm 11.0 1.1 11.0 100 0.0 NNW 54 61 29 33 1012.5 - 5.2
30/10:00pm 11.2 2.0 10.9 98 0.2 NNW 50 59 27 32 1012.1 - 4.8
30/09:50pm 11.2 3.3 10.9 98 0.2 NW 43 52 23 28 1012.3 - 4.8
30/09:40pm 11.1 5.2 11.0 99 0.1 NNW 33 39 18 21 1012.9 - 4.8
30/09:30pm 10.9 - 11.0 - - NW 28 32 15 17 1013.0 - 4.8
30/09:20pm 11.0 - 11.1 - - NW 26 28 14 15 1013.5 - 4.8
30/09:10pm 11.1 6.5 11.0 99 0.1 NNW 26 30 14 16 1013.3 - 4.8
30/09:00pm 11.1 6.5 11.0 99 0.1 NNW 26 32 14 17 1013.4 - 4.8
30/08:50pm 11.2 7.0 11.0 99 0.1 NNW 24 30 13 16 1013.3 - 4.8
30/08:40pm 11.3 7.0 10.9 97 0.2 NNW 24 30 13 16 1013.3 - 4.8
30/08:30pm 11.3 6.6 10.8 97 0.3 NNW 26 32 14 17 1013.2 - 4.8
30/08:20pm 11.2 7.4 11.1 99 0.1 NNW 22 26 12 14 1013.3 - 4.8
30/08:10pm 11.1 - 11.2 - - NNW 20 22 11 12 1013.4 - 4.8
30/08:00pm 11.0 - 11.1 - - NNW 22 24 12 13 1013.5 - 4.8
30/07:50pm 10.9 - 11.0 - - NNW 19 26 10 14 1013.5 - 4.8
30/07:40pm 10.9 - 11.0 - - NNW 15 17 8 9 1013.6 - 4.8
30/07:30pm 10.9 - 11.0 - - NW 13 15 7 8 1013.5 - 4.8
30/07:20pm 10.9 - 11.0 - - NNW 19 22 10 12 1013.5 - 4.8
30/07:10pm 10.9 - 11.0 - - NNW 19 22 10 12 1013.4 - 4.8
30/07:00pm 10.9 - 11.1 - - NNW 19 28 10 15 1013.5 - 4.8
30/06:50pm 11.2 7.4 11.1 99 0.1 NNW 22 26 12 14 1013.7 - 4.0
30/06:40pm 11.3 7.8 11.0 98 0.2 NNW 20 22 11 12 1013.5 - 3.6
30/06:30pm 11.3 7.5 11.0 98 0.2 NNW 22 24 12 13 1013.4 - 3.4
30/06:20pm 11.1 7.3 11.1 100 0.0 NNW 22 24 12 13 1013.6 - 3.4
30/06:10pm 11.1 7.6 11.0 99 0.1 NNW 20 24 11 13 1013.6 - 3.4
30/06:00pm 11.0 7.7 11.0 100 0.0 NNW 19 20 10 11 1013.7 - 3.4
30/05:50pm 11.1 8.2 11.0 99 0.1 NNW 17 19 9 10 1013.7 - 3.4
30/05:40pm 11.1 7.8 10.9 99 0.1 NNW 19 22 10 12 1013.5 - 3.4
30/05:30pm 10.9 8.7 10.9 100 0.0 NW 13 17 7 9 1013.7 - 3.4
30/05:20pm 10.7 - 11.0 - - WNW 9 11 5 6 1013.7 - 3.4
30/05:10pm 10.8 - 11.0 - - NNW 11 15 6 8 1013.7 - 3.4
30/05:00pm 10.6 - 10.9 - - NNW 13 15 7 8 1013.6 - 3.4
30/04:50pm 10.5 - 10.7 - - NW 11 11 6 6 1013.7 - 3.4
30/04:40pm 10.5 - 10.8 - - NW 9 9 5 5 1013.8 - 3.4
30/04:30pm 10.5 - 10.8 - - NW 11 13 6 7 1013.8 - 3.4
30/04:20pm 10.5 - 10.8 - - NW 13 15 7 8 1013.8 - 3.4
30/04:10pm 10.5 - 10.8 - - NW 17 22 9 12 1014.0 - 3.4
30/04:00pm 10.5 - 10.8 - - NW 20 24 11 13 1014.0 - 3.4
30/03:50pm 10.6 - 10.7 - - NW 26 32 14 17 1014.0 - 3.4
30/03:40pm 10.7 4.8 10.6 99 0.1 NNW 32 37 17 20 1013.7 - 3.4
30/03:30pm 10.3 - 10.7 - - NNW 26 32 14 17 1013.9 - 3.4
30/03:20pm 10.1 - 10.5 - - NW 20 24 11 13 1014.2 - 3.2
30/03:10pm 10.1 - 10.5 - - NNW 13 19 7 10 1014.5 - 2.4
30/03:00pm 10.1 - 10.5 - - N 9 13 5 7 1014.6 - 2.2
30/02:50pm 10.2 - 10.6 - - NW 6 7 3 4 1014.6 - 2.0
30/02:40pm 10.2 - 10.6 - - NW 9 13 5 7 1014.8 - 1.6
30/02:30pm 10.3 - 10.5 - - NW 13 15 7 8 1015.0 - 1.0
30/02:20pm 10.4 7.7 10.4 100 0.0 NNW 15 17 8 9 1015.2 - 0.4
30/02:10pm 10.6 7.1 10.1 97 0.3 NNW 19 22 10 12 1015.2 - 0.4
30/02:00pm 10.9 7.1 9.9 93 0.5 NW 20 22 11 12 1015.2 - 0.2
30/01:50pm 11.2 7.3 9.6 90 0.8 NW 20 22 11 12 1015.3 - 0.0
30/01:40pm 11.3 7.4 9.6 89 0.9 NNW 20 22 11 12 1015.4 - 0.0
30/01:30pm 11.4 7.5 9.4 87 1.0 NNW 20 24 11 13 1015.4 - 0.0
30/01:20pm 11.6 8.3 9.7 88 1.0 NW 17 17 9 9 1015.6 - 0.0
30/01:10pm 11.8 8.5 9.7 87 1.1 NW 17 19 9 10 1015.7 - 0.0
30/01:00pm 11.7 8.8 9.6 87 1.1 NW 15 19 8 10 1015.8 - 0.0
30/12:50pm 11.5 7.6 9.4 87 1.1 NW 20 20 11 11 1016.1 - 0.0
30/12:40pm 11.5 7.5 9.2 86 1.2 NW 20 22 11 12 1016.4 - 0.0
30/12:30pm 11.4 7.4 8.9 84 1.3 NW 20 22 11 12 1016.5 - 0.0
30/12:20pm 11.5 7.1 8.9 84 1.3 NW 22 24 12 13 1016.7 - 0.0
30/12:10pm 11.6 7.6 8.9 83 1.4 NW 20 24 11 13 1016.8 - 0.0
30/12:00pm 11.9 7.4 8.5 80 1.8 NW 22 26 12 14 1017.1 - 0.0
30/11:50am 12.0 7.0 8.1 77 2.0 NNW 24 28 13 15 1017.1 - 0.0
30/11:40am 12.1 7.5 8.2 77 2.0 NNW 22 26 12 14 1017.2 - 0.0
30/11:30am 12.1 7.9 8.2 77 2.0 NNW 20 22 11 12 1017.3 - 0.0
30/11:20am 12.5 8.4 7.8 73 2.4 NNW 19 22 10 12 1017.6 - 0.0
30/11:10am 12.7 8.1 8.3 74 2.3 NNW 22 26 12 14 1017.8 - 0.0
30/11:00am 12.9 8.6 7.7 70 2.7 NNW 20 26 11 14 1018.0 - 0.0
30/10:50am 13.0 8.4 8.3 73 2.4 NW 22 26 12 14 1018.4 - 0.0
30/10:40am 12.8 7.9 7.1 68 2.9 NNW 22 26 12 14 1018.4 - 0.0
30/10:30am 12.8 7.6 7.1 68 2.9 NW 24 28 13 15 1018.6 - 0.0
30/10:20am 13.4 9.4 6.7 64 3.4 NNW 17 24 9 13 1018.7 - 0.0
30/10:10am 13.0 9.0 6.8 66 3.1 NW 17 20 9 11 1019.0 - 0.0
30/10:00am 12.7 8.9 7.4 70 2.7 NNW 17 20 9 11 1019.2 - 0.0
30/09:50am 12.4 9.2 6.7 68 2.8 NW 13 17 7 9 1019.2 - 0.0
30/09:40am 12.3 8.9 6.0 65 3.1 NW 13 15 7 8 1019.5 - 0.0
30/09:30am 11.5 8.5 5.8 68 2.8 NNW 11 13 6 7 1019.6 - 0.0
30/09:20am 11.5 8.9 6.2 70 2.6 NNW 9 11 5 6 1019.8 - 0.0
30/09:10am 11.1 8.8 7.4 78 1.9 NW 9 11 5 6 1019.8 - 0.0
30/09:00am 10.8 7.8 5.9 72 2.4 NNW 11 13 6 7 1020.0 - 0.0
30/08:50am 9.9 7.3 5.9 76 1.9 NNW 9 11 5 6 1020.1 - 0.0
30/08:40am 9.3 6.6 7.4 88 0.9 NNW 11 17 6 9 1020.2 - 0.0
30/08:30am 10.3 7.3 7.8 84 1.3 NNW 13 24 7 13 1020.3 - 0.0
30/08:20am 10.4 9.2 6.3 76 2.0 W 2 11 1 6 1020.5 - 0.0
30/08:10am 10.1 7.9 5.3 72 2.3 SSE 6 7 3 4 1020.1 - 0.0
30/08:00am 10.2 7.9 5.5 72 2.2 SSE 7 9 4 5 1019.6 - 0.0
30/07:50am 10.2 7.4 5.3 71 2.3 SSE 9 9 5 5 1019.6 - 0.0
30/07:40am 10.0 7.3 5.4 73 2.2 SE 9 9 5 5 1019.6 - 0.0
30/07:30am 9.5 6.6 4.5 71 2.3 SE 9 9 5 5 1019.5 - 0.0
30/07:20am 9.1 5.8 4.3 72 2.2 SE 11 11 6 6 1019.5 - 0.0
30/07:10am 9.0 6.0 4.1 71 2.2 SE 9 9 5 5 1019.5 - 0.0
30/07:00am 9.1 6.5 4.1 71 2.3 SSE 7 9 4 5 1019.5 - 0.0
30/06:50am 9.5 6.9 4.3 70 2.4 SSE 7 9 4 5 1019.4 - 0.0
30/06:40am 9.6 7.0 4.3 69 2.5 SSE 7 7 4 4 1019.5 - 0.0
30/06:30am 9.5 6.9 4.2 69 2.4 SSE 7 7 4 4 1019.4 - 0.0
30/06:20am 9.4 6.8 4.1 69 2.4 SSE 7 9 4 5 1019.3 - 0.0
30/06:10am 9.4 6.4 4.2 70 2.4 SSE 9 9 5 5 1019.3 - 0.0
30/06:00am 9.3 6.3 4.1 70 2.4 SSE 9 11 5 6 1019.2 - 0.0
30/05:50am 9.1 6.1 4.2 71 2.3 SE 9 11 5 6 1019.1 - 0.0
30/05:40am 9.1 6.5 4.3 72 2.2 SE 7 9 4 5 1019.1 - 0.0
30/05:30am 9.0 6.4 4.2 72 2.2 SE 7 9 4 5 1019.0 - 0.0
30/05:20am 9.0 6.0 4.2 72 2.2 SSE 9 11 5 6 1019.1 - 0.0
30/05:10am 9.0 5.6 4.1 71 2.2 SSE 11 11 6 6 1018.9 - 0.0
30/05:00am 9.0 5.6 4.2 72 2.2 SSE 11 13 6 7 1018.8 - 0.0
30/04:50am 9.4 6.4 4.2 70 2.4 SSE 9 11 5 6 1018.7 - 0.0
30/04:40am 9.4 6.8 4.2 70 2.4 S 7 9 4 5 1018.9 - 0.0
30/04:30am 9.4 6.8 4.1 69 2.4 S 7 7 4 4 1019.0 - 0.0
30/04:20am 9.4 6.8 4.1 69 2.4 S 7 7 4 4 1019.0 - 0.0
30/04:10am 9.5 7.1 4.3 70 2.4 S 6 7 3 4 1019.1 - 0.0
30/04:00am 9.4 6.8 4.3 70 2.4 SSE 7 9 4 5 1019.2 - 0.0
30/03:50am 9.3 6.3 4.2 70 2.4 S 9 11 5 6 1019.1 - 0.0
30/03:40am 9.3 5.9 4.2 70 2.4 S 11 11 6 6 1019.2 - 0.0
30/03:30am 9.4 6.0 4.2 70 2.4 S 11 11 6 6 1019.1 - 0.0
30/03:20am 9.4 6.0 4.1 69 2.4 S 11 11 6 6 1019.3 - 0.0
30/03:10am 9.5 6.5 4.2 69 2.4 S 9 11 5 6 1019.4 - 0.0
30/03:00am 9.4 6.1 4.4 71 2.3 S 11 11 6 6 1019.4 - 0.0
30/02:50am 9.4 6.4 4.3 70 2.4 S 9 11 5 6 1019.5 - 0.0
30/02:40am 9.4 6.0 4.0 69 2.5 S 11 11 6 6 1019.6 - 0.0
30/02:30am 9.4 6.4 4.1 69 2.4 SSE 9 9 5 5 1019.8 - 0.0
30/02:20am 9.4 7.0 4.3 70 2.4 SE 6 7 3 4 1020.0 - 0.0
30/02:10am 9.5 6.5 4.2 69 2.4 SE 9 9 5 5 1020.2 - 0.0
30/02:00am 9.7 7.0 3.8 66 2.7 SE 7 9 4 5 1020.2 - 0.0
30/01:50am 10.0 7.5 3.7 65 2.9 SE 6 7 3 4 1020.4 - 0.0
30/01:40am 10.1 7.6 3.8 65 2.9 SE 6 6 3 3 1020.5 - 0.0
30/01:30am 10.2 8.1 4.1 66 2.8 S 4 6 2 3 1020.6 - 0.0
30/01:20am 10.1 7.6 3.6 64 3.0 S 6 7 3 4 1020.7 - 0.0
30/01:10am 9.8 7.1 3.6 65 2.8 S 7 9 4 5 1020.8 - 0.0
30/01:00am 10.0 6.9 3.6 64 2.9 SSE 9 11 5 6 1021.0 - 0.0
30/12:50am 9.9 6.8 3.7 65 2.8 SE 9 11 5 6 1021.0 - 0.0
30/12:40am 10.0 7.0 4.0 66 2.8 ESE 9 9 5 5 1021.2 - 0.0
30/12:30am 10.4 7.4 4.1 65 2.9 E 9 11 5 6 1021.3 - 0.0
30/12:20am 10.6 7.3 4.3 65 2.9 E 11 13 6 7 1021.4 - 0.0
30/12:10am 10.7 8.1 4.1 63 3.1 E 7 11 4 6 1021.5 - 0.0
30/12:00am 10.9 9.2 4.0 62 3.2 E 2 6 1 3 1021.7 - 0.0
 
Date/Time
EST
Temp
°C
App
Temp
°C
Dew
Point
°C
Rel
Hum
%
Delta-T
°C
Wind Press
QNH
hPa
Press
MSL
hPa
Rain since
9am
mm
Dir  Spd
km/h
Gust
km/h
Spd
kts
Gust
kts
29/11:50pm 10.8 8.8 4.3 64 3.0 SSE 4 4 2 2 1021.8 - 0.0
29/11:40pm 10.7 8.6 3.8 62 3.2 S 4 6 2 3 1021.8 - 0.0
29/11:30pm 10.4 8.1 4.6 67 2.7 S 6 6 3 3 1022.0 - 0.0
29/11:20pm 10.2 7.7 4.5 68 2.7 SSE 7 7 4 4 1022.0 - 0.0
29/11:10pm 9.9 7.3 4.4 68 2.6 SSE 7 9 4 5 1022.1 - 0.0
29/11:00pm 10.1 7.7 4.4 68 2.7 SE 6 7 3 4 1022.2 - 0.0
29/10:50pm 10.8 8.1 3.7 61 3.3 SE 7 9 4 5 1022.3 - 0.0
29/10:40pm 11.8 9.7 3.8 58 3.7 E 4 6 2 3 1022.4 - 0.0
29/10:30pm 12.6 11.1 2.9 51 4.5 CALM 0 2 0 1 1022.5 - 0.0
29/10:20pm 12.7 10.3 2.4 49 4.7 NNW 4 4 2 2 1022.7 - 0.0
29/10:10pm 12.7 10.4 2.5 50 4.7 NW 4 4 2 2 1022.8 - 0.0
29/10:00pm 12.6 9.9 2.4 50 4.6 WNW 6 7 3 4 1022.8 - 0.0
29/09:50pm 12.7 9.8 2.4 49 4.7 WNW 7 7 4 4 1022.9 - 0.0
29/09:40pm 12.7 9.9 2.2 49 4.8 WNW 6 7 3 4 1023.0 - 0.0
29/09:30pm 12.7 9.8 2.5 50 4.7 WNW 7 7 4 4 1022.9 - 0.0
29/09:20pm 12.8 9.9 2.5 49 4.7 WNW 7 7 4 4 1023.0 - 0.0
29/09:10pm 12.8 10.1 2.5 49 4.7 WNW 6 6 3 3 1023.0 - 0.0
29/09:00pm 12.8 10.1 2.7 50 4.6 NW 6 6 3 3 1023.0 - 0.0
29/08:50pm 12.8 10.1 2.9 51 4.6 WNW 6 6 3 3 1023.0 - 0.0
29/08:40pm 12.8 10.0 3.2 52 4.5 WNW 7 9 4 5 1023.1 - 0.0
29/08:30pm 12.8 10.1 3.5 53 4.3 W 7 7 4 4 1023.2 - 0.0
29/08:20pm 12.8 10.1 3.5 53 4.3 WNW 7 7 4 4 1023.2 - 0.0
29/08:10pm 12.6 9.9 3.7 54 4.2 W 7 7 4 4 1023.3 - 0.0
29/08:00pm 12.4 9.4 4.2 57 3.9 WNW 9 9 5 5 1023.3 - 0.0
29/07:50pm 12.0 9.1 4.7 61 3.5 NW 9 11 5 6 1023.2 - 0.0
29/07:40pm 13.0 10.4 4.2 55 4.2 NW 7 9 4 5 1023.2 - 0.0
29/07:30pm 13.2 11.1 3.8 53 4.4 NW 4 6 2 3 1023.1 - 0.0
29/07:20pm 13.1 11.3 3.3 51 4.6 WNW 2 4 1 2 1023.0 - 0.0
29/07:10pm 13.0 10.9 3.9 54 4.3 WNW 4 4 2 2 1023.0 - 0.0
29/07:00pm 13.0 10.5 4.7 57 4.0 WNW 7 7 4 4 1023.0 - 0.0
29/06:50pm 12.9 10.1 5.3 60 3.7 WNW 9 9 5 5 1023.0 - 0.0
29/06:40pm 13.1 10.3 5.1 58 3.9 NW 9 9 5 5 1023.0 - 0.0
29/06:30pm 13.2 10.3 4.7 56 4.1 NW 9 9 5 5 1022.9 - 0.0
29/06:20pm 13.3 10.4 4.7 56 4.1 NW 9 9 5 5 1022.9 - 0.0
29/06:10pm 13.3 10.8 4.8 56 4.1 NW 7 9 4 5 1022.8 - 0.0
29/06:00pm 13.3 10.4 4.8 56 4.1 NW 9 11 5 6 1022.8 - 0.0
29/05:50pm 13.4 10.5 4.7 55 4.2 WNW 9 9 5 5 1022.8 - 0.0
29/05:40pm 13.5 10.6 4.8 55 4.2 NW 9 11 5 6 1022.8 - 0.0
29/05:30pm 13.5 10.4 5.4 58 4.0 NW 11 11 6 6 1022.8 - 0.0
29/05:20pm 13.7 10.6 5.7 58 3.9 NW 11 11 6 6 1022.9 - 0.0
29/05:10pm 13.8 10.6 5.3 56 4.2 NW 11 11 6 6 1022.8 - 0.0
29/05:00pm 14.0 10.8 5.2 55 4.3 WNW 11 11 6 6 1023.0 - 0.0
29/04:50pm 14.2 12.0 5.3 55 4.4 NW 6 7 3 4 1022.9 - 0.0
29/04:40pm 14.3 11.2 3.6 48 5.1 NNW 9 13 5 7 1022.9 - 0.0
29/04:30pm 14.6 11.0 3.1 46 5.4 NW 11 13 6 7 1022.9 - 0.0
29/04:20pm 15.0 11.9 5.5 53 4.7 NW 11 13 6 7 1023.0 - 0.0
29/04:10pm 15.0 11.6 4.0 47 5.3 NW 11 13 6 7 1023.1 - 0.0
29/04:00pm 15.1 11.5 4.8 50 5.0 NW 13 17 7 9 1023.0 - 0.0
29/03:50pm 15.0 11.1 5.3 52 4.8 NNW 15 19 8 10 1023.0 - 0.0
29/03:40pm 15.3 11.2 4.2 47 5.4 NW 15 19 8 10 1023.1 - 0.0
29/03:30pm 15.6 11.1 4.3 47 5.5 NW 17 19 9 10 1023.2 - 0.0
29/03:20pm 15.8 12.0 4.0 45 5.7 N 13 17 7 9 1023.1 - 0.0
29/03:10pm 15.4 12.1 4.7 49 5.2 N 11 15 6 8 1023.1 - 0.0
29/03:00pm 15.5 12.0 5.3 50 5.0 N 13 17 7 9 1023.2 - 0.0
29/02:50pm 15.0 11.1 5.2 52 4.8 N 15 19 8 10 1023.3 - 0.0
29/02:40pm 14.9 10.7 5.6 53 4.6 N 17 19 9 10 1023.4 - 0.0
29/02:30pm 14.9 10.8 6.1 55 4.4 N 17 20 9 11 1023.6 - 0.0
29/02:20pm 15.0 11.6 7.5 61 3.9 NW 15 22 8 12 1023.8 - 0.0
29/02:10pm 14.6 9.8 4.9 52 4.7 NNW 19 24 10 13 1023.8 - 0.0
29/02:00pm 14.8 10.2 6.6 58 4.1 NNW 20 24 11 13 1024.2 - 0.0
29/01:50pm 15.1 10.3 4.5 49 5.1 NNW 19 20 10 11 1024.2 - 0.0
29/01:40pm 14.9 10.3 6.3 56 4.3 N 20 24 11 13 1024.4 - 0.0
29/01:30pm 14.6 9.6 4.6 51 4.8 NNW 20 24 11 13 1024.5 - 0.0
29/01:20pm 14.4 9.8 6.5 59 4.0 NW 20 24 11 13 1024.8 - 0.0
29/01:10pm 14.5 9.5 4.4 50 4.9 NNW 20 26 11 14 1024.9 - 0.0
29/01:00pm 14.5 10.0 6.3 58 4.1 NW 19 22 10 12 1024.9 - 0.0
29/12:50pm 14.7 11.2 7.1 60 3.9 NW 15 19 8 10 1025.2 - 0.0
29/12:40pm 14.7 11.0 6.3 57 4.2 NW 15 20 8 11 1025.4 - 0.0
29/12:30pm 14.7 11.8 6.7 58 4.1 NW 11 13 6 7 1025.6 - 0.0
29/12:20pm 14.6 11.6 5.9 56 4.3 NNW 11 15 6 8 1025.8 - 0.0
29/12:10pm 14.6 11.4 4.9 52 4.7 NNW 11 15 6 8 1025.9 - 0.0
29/12:00pm 15.3 13.4 6.6 56 4.4 NNW 6 11 3 6 1026.1 - 0.0
29/11:50am 14.8 12.8 7.1 60 3.9 NNE 7 11 4 6 1026.3 - 0.0
29/11:40am 14.9 12.9 7.2 60 3.9 NNE 7 9 4 5 1026.2 - 0.0
29/11:30am 14.8 13.1 7.7 62 3.7 NE 6 7 3 4 1026.3 - 0.0
29/11:20am 14.3 12.4 6.7 60 3.8 N 6 7 3 4 1026.4 - 0.0
29/11:10am 14.0 11.9 6.5 60 3.8 E 7 9 4 5 1026.4 - 0.0
29/11:00am 13.1 11.3 7.8 70 2.7 ESE 7 11 4 6 1026.5 - 0.0
29/10:50am 12.6 10.3 7.5 71 2.6 ESE 9 13 5 7 1026.6 - 0.0
29/10:40am 12.7 9.8 6.7 67 3.0 ESE 11 15 6 8 1026.8 - 0.0
29/10:30am 11.9 9.2 7.3 73 2.3 ESE 11 13 6 7 1026.9 - 0.0
29/10:20am 11.4 7.8 6.9 74 2.2 E 15 19 8 10 1027.1 - 0.0
29/10:10am 11.4 7.9 7.0 74 2.2 ESE 15 19 8 10 1027.2 - 0.0
29/10:00am 11.4 8.3 7.3 76 2.1 SE 13 19 7 10 1027.3 - 0.0
29/09:50am 11.0 7.6 7.6 79 1.7 ESE 15 17 8 9 1027.8 - 0.0
29/09:40am 10.5 6.9 6.8 78 1.8 ESE 15 19 8 10 1027.9 - 0.0
29/09:30am 10.3 7.2 7.3 82 1.5 SE 13 15 7 8 1028.0 - 0.0
29/09:20am 10.2 6.9 6.5 78 1.8 ESE 13 17 7 9 1028.2 - 0.0
29/09:10am 10.0 6.3 6.2 77 1.8 ESE 15 17 8 9 1028.4 - 0.0
29/09:00am 10.1 6.2 7.2 82 1.4 SE 17 19 9 10 1028.5 - 0.0
29/08:50am 9.7 6.0 6.4 80 1.6 SE 15 20 8 11 1028.6 - 0.0
29/08:40am 9.5 5.8 6.2 80 1.6 SE 15 17 8 9 1028.5 - 0.0
29/08:30am 9.3 5.7 6.9 85 1.2 SSE 15 20 8 11 1028.6 - 0.0
29/08:20am 8.9 5.2 6.5 85 1.2 SSE 15 17 8 9 1028.6 - 0.0
29/08:10am 8.5 4.4 6.0 84 1.2 SSE 17 19 9 10 1028.4 - 0.0
29/08:00am 8.4 3.9 6.2 86 1.1 SSE 19 20 10 11 1028.2 - 0.0
29/07:50am 8.9 4.9 6.7 86 1.1 SE 17 19 9 10 1028.0 - 0.0
29/07:40am 8.3 3.9 6.6 89 0.8 SE 19 20 10 11 1027.9 - 0.0
29/07:30am 8.1 3.7 6.4 89 0.8 SE 19 20 10 11 1027.9 - 0.0
29/07:20am 7.8 3.4 6.6 92 0.6 SE 19 19 10 10 1027.7 - 0.0
29/07:10am 7.4 2.8 6.4 93 0.5 SE 20 20 11 11 1027.6 - 0.0
29/07:00am 7.1 1.6 5.8 91 0.6 SE 24 24 13 13 1027.4 - 0.0
29/06:50am 6.8 0.9 5.6 92 0.6 SE 26 26 14 14 1027.0 - 0.0
29/06:40am 6.6 1.0 5.4 92 0.6 SE 24 26 13 14 1026.9 - 0.0
29/06:30am 6.5 0.9 5.2 91 0.6 SSE 24 26 13 14 1026.9 - 0.0
29/06:20am 6.4 0.7 5.1 91 0.6 SE 24 26 13 14 1026.7 - 0.0
29/06:10am 6.5 1.2 4.9 89 0.7 SE 22 24 12 13 1026.5 - 0.0
29/06:00am 6.4 0.7 4.9 90 0.7 SSE 24 24 13 13 1026.5 - 0.0
29/05:50am 6.2 0.1 4.9 91 0.6 SSE 26 26 14 14 1026.4 - 0.0
29/05:40am 6.1 0.0 4.9 92 0.5 SSE 26 28 14 15 1026.1 - 0.0
29/05:30am 6.0 -0.1 4.9 93 0.5 SSE 26 28 14 15 1026.0 - 0.0
29/05:20am 6.0 -0.1 4.9 93 0.5 SSE 26 28 14 15 1025.9 - 0.0
29/05:10am 6.0 0.3 4.9 93 0.5 SSE 24 26 13 14 1025.9 - 0.0
29/05:00am 6.1 0.4 5.0 93 0.5 SSE 24 26 13 14 1025.8 - 0.0
29/04:50am 6.0 0.7 5.0 93 0.5 SSE 22 24 12 13 1025.8 - 0.0
29/04:40am 6.2 0.5 5.0 92 0.5 SSE 24 26 13 14 1025.7 - 0.0
29/04:30am 6.1 0.1 5.1 93 0.5 SSE 26 28 14 15 1025.6 - 0.0
29/04:20am 6.0 0.3 5.1 94 0.4 SSE 24 26 13 14 1025.4 - 0.0
29/04:10am 6.0 0.0 5.2 95 0.4 SSE 26 28 14 15 1025.3 - 0.0
29/04:00am 6.1 0.5 5.2 94 0.4 SSE 24 26 13 14 1025.4 - 0.0
29/03:50am 6.2 0.6 5.4 95 0.4 SSE 24 26 13 14 1025.5 - 0.0
29/03:40am 6.2 1.0 5.5 95 0.3 SSE 22 24 12 13 1025.7 - 0.0
29/03:30am 6.3 0.3 5.5 95 0.4 SSE 26 28 14 15 1025.7 - 0.0
29/03:20am 6.3 0.7 5.5 95 0.4 SSE 24 26 13 14 1025.6 - 0.0
29/03:10am 6.3 0.7 5.5 95 0.4 SE 24 26 13 14 1025.9 - 0.0
29/03:00am 6.3 0.4 5.6 95 0.3 SE 26 28 14 15 1025.7 - 0.0
29/02:50am 6.2 0.2 5.5 95 0.3 SSE 26 26 14 14 1025.9 - 0.0
29/02:40am 6.3 0.4 5.6 95 0.3 SSE 26 28 14 15 1025.9 - 0.0
29/02:30am 6.4 0.8 5.6 95 0.4 SE 24 26 13 14 1026.2 - 0.0
29/02:20am 6.5 1.0 5.7 95 0.4 SE 24 26 13 14 1026.3 - 0.0
29/02:10am 6.4 0.8 5.6 95 0.4 SE 24 26 13 14 1026.6 - 0.0
29/02:00am 6.5 0.9 5.6 94 0.4 SE 24 24 13 13 1026.6 - 0.0
29/01:50am 6.5 1.0 5.7 95 0.4 SE 24 24 13 13 1026.6 - 0.0
29/01:40am 6.6 1.1 5.8 95 0.4 SE 24 26 13 14 1026.7 - 0.0
29/01:30am 6.5 1.0 5.8 95 0.3 SE 24 26 13 14 1026.9 - 0.0
29/01:20am 6.4 0.9 5.7 95 0.3 SE 24 28 13 15 1026.8 - 0.0
29/01:10am 6.5 1.0 5.8 95 0.3 SE 24 26 13 14 1026.9 - 0.0
29/01:00am 6.6 1.5 5.8 95 0.4 SE 22 24 12 13 1027.1 - 0.0
29/12:50am 6.6 1.1 5.9 95 0.3 SE 24 24 13 13 1027.1 - 0.0
29/12:40am 6.5 1.4 5.9 96 0.3 SE 22 22 12 12 1027.2 - 0.0
29/12:30am 6.3 1.2 5.9 97 0.2 SSE 22 24 12 13 1027.2 - 0.0
29/12:20am 6.2 1.0 5.7 97 0.2 SSE 22 22 12 12 1027.3 - 0.0
29/12:10am 6.1 1.3 5.4 95 0.3 SSE 20 22 11 12 1027.5 - 0.0
29/12:00am 6.3 1.4 5.2 93 0.5 SSE 20 22 11 12 1027.5 - 0.0
 
Date/Time
EST
Temp
°C
App
Temp
°C
Dew
Point
°C
Rel
Hum
%
Delta-T
°C
Wind Press
QNH
hPa
Press
MSL
hPa
Rain since
9am
mm
Dir  Spd
km/h
Gust
km/h
Spd
kts
Gust
kts
28/11:50pm 6.3 1.4 5.3 93 0.5 SE 20 22 11 12 1027.5 - 0.0
28/11:40pm 6.2 1.3 5.3 94 0.4 SSE 20 22 11 12 1027.3 - 0.0
28/11:30pm 6.2 1.2 4.7 90 0.7 SSE 20 22 11 12 1027.3 - 0.0
28/11:20pm 6.3 1.0 4.8 90 0.7 SSE 22 26 12 14 1027.3 - 0.0
28/11:10pm 6.3 1.1 5.4 94 0.4 SE 22 24 12 13 1027.0 - 0.0
28/11:00pm 6.1 1.2 4.9 92 0.5 SSE 20 22 11 12 1027.2 - 0.0
28/10:50pm 6.5 1.0 4.1 85 1.1 SSE 22 22 12 12 1027.1 - 0.0
28/10:40pm 6.8 1.6 3.6 80 1.4 SSE 20 22 11 12 1026.9 - 0.0
28/10:30pm 7.0 1.8 3.6 79 1.5 SSE 20 20 11 11 1027.0 - 0.0
28/10:20pm 7.1 2.2 4.0 81 1.4 SSE 19 19 10 10 1027.1 - 0.0
28/10:10pm 6.6 1.6 3.8 82 1.2 SE 19 19 10 10 1027.2 - 0.0
28/10:00pm 6.7 2.2 4.0 83 1.2 SE 17 17 9 9 1027.0 - 0.0
28/09:50pm 7.6 3.9 4.5 81 1.4 SSE 13 17 7 9 1027.0 - 0.0
28/09:40pm 8.9 7.3 4.4 73 2.1 WSW 2 6 1 3 1027.2 - 0.0
28/09:30pm 9.3 6.8 3.7 68 2.6 W 6 7 3 4 1027.2 - 0.0
28/09:20pm 9.6 7.1 3.8 67 2.7 WNW 6 7 3 4 1027.1 - 0.0
28/09:10pm 9.4 6.7 3.7 67 2.6 WNW 7 9 4 5 1026.9 - 0.0
28/09:00pm 8.9 5.8 3.6 69 2.4 WNW 9 9 5 5 1026.9 - 0.0
28/08:50pm 9.2 5.8 4.0 70 2.4 WNW 11 13 6 7 1027.0 - 0.0
28/08:40pm 9.8 6.7 3.8 66 2.8 WNW 9 9 5 5 1027.0 - 0.0
28/08:30pm 9.9 7.4 3.8 66 2.8 WNW 6 6 3 3 1026.9 - 0.0
28/08:20pm 10.1 7.6 3.9 65 2.9 W 6 6 3 3 1026.8 - 0.0
28/08:10pm 10.2 7.6 4.0 65 2.9 W 7 11 4 6 1026.8 - 0.0
28/08:00pm 10.1 7.5 4.1 66 2.8 WNW 7 7 4 4 1026.7 - 0.0
28/07:50pm 10.1 7.5 4.1 66 2.8 NW 7 9 4 5 1026.7 - 0.0
28/07:40pm 9.8 7.1 3.9 66 2.7 NNW 7 13 4 7 1026.6 - 0.0
28/07:30pm 9.7 4.7 3.7 66 2.7 NW 19 22 10 12 1026.5 - 0.0
28/07:20pm 9.8 3.9 3.7 66 2.8 WNW 24 26 13 14 1026.2 - 0.0
28/07:10pm 10.1 3.8 3.7 64 2.9 WNW 26 26 14 14 1026.1 - 0.0
28/07:00pm 10.2 3.9 3.6 63 3.0 WNW 26 28 14 15 1026.1 - 0.0
28/06:50pm 10.3 4.0 3.6 63 3.1 WNW 26 26 14 14 1026.0 - 0.0
28/06:40pm 10.4 4.3 3.0 60 3.3 WNW 24 26 13 14 1025.9 - 0.0
28/06:30pm 10.4 4.4 3.2 61 3.3 WNW 24 24 13 13 1025.9 - 0.0
28/06:20pm 10.6 4.9 2.9 59 3.5 WNW 22 24 12 13 1025.9 - 0.0
28/06:10pm 10.8 5.5 3.2 59 3.5 NW 20 22 11 12 1026.0 - 0.0
28/06:00pm 11.4 5.8 3.5 58 3.6 NW 22 24 12 13 1025.9 - 0.0
28/05:50pm 11.8 6.6 3.7 57 3.8 NW 20 22 11 12 1025.8 - 0.0
28/05:40pm 12.3 6.7 3.4 54 4.1 NW 22 24 12 13 1025.8 - 0.0
28/05:30pm 12.5 6.5 3.1 52 4.3 WNW 24 26 13 14 1025.6 - 0.0
28/05:20pm 12.8 6.8 3.3 52 4.4 WNW 24 28 13 15 1025.7 - 0.0
28/05:10pm 13.0 7.6 4.3 55 4.1 NW 22 26 12 14 1025.6 - 0.0
28/05:00pm 13.2 7.2 3.2 50 4.7 NW 24 30 13 16 1025.5 - 0.0
28/04:50pm 13.4 7.4 3.4 50 4.7 NW 24 26 13 14 1025.5 - 0.0
28/04:40pm 13.4 7.5 3.9 52 4.5 NW 24 26 13 14 1025.5 - 0.0
28/04:30pm 13.4 7.5 4.0 53 4.5 NW 24 28 13 15 1025.4 - 0.0
28/04:20pm 13.4 7.2 4.3 54 4.3 NW 26 30 14 16 1025.1 - 0.0
28/04:10pm 13.2 6.5 3.8 53 4.4 NW 28 32 15 17 1025.2 - 0.0
28/04:00pm 13.3 6.2 3.6 52 4.6 NNW 30 32 16 17 1025.1 - 0.0
28/03:50pm 13.4 6.8 4.2 53 4.4 NW 28 32 15 17 1025.1 - 0.0
28/03:40pm 13.3 6.1 3.1 50 4.7 NW 30 32 16 17 1025.1 - 0.0
28/03:30pm 13.2 5.8 4.1 54 4.3 NNW 32 37 17 20 1024.9 - 0.0
28/03:20pm 13.2 6.1 3.8 53 4.4 NNW 30 33 16 18 1024.8 - 0.0
28/03:10pm 13.3 6.3 4.2 54 4.3 NNW 30 35 16 19 1025.1 - 0.0
28/03:00pm 13.2 5.8 3.8 53 4.4 NW 32 33 17 18 1025.1 - 0.0
28/02:50pm 13.5 6.9 4.4 54 4.4 NNW 28 33 15 18 1025.1 - 0.0
28/02:40pm 13.7 7.1 4.3 53 4.5 NNW 28 32 15 17 1025.2 - 0.0
28/02:30pm 13.6 7.9 4.7 55 4.3 NNW 24 32 13 17 1025.3 - 0.0
28/02:20pm 13.4 6.8 4.1 53 4.4 NNW 28 32 15 17 1025.5 - 0.0
28/02:10pm 13.6 7.5 4.6 54 4.3 NNW 26 32 14 17 1025.5 - 0.0
28/02:00pm 13.6 7.5 5.0 56 4.2 NNW 26 30 14 16 1025.7 - 0.0
28/01:50pm 13.3 6.3 4.1 53 4.4 NNW 30 32 16 17 1025.8 - 0.0
28/01:40pm 13.6 7.1 4.8 55 4.3 NNW 28 30 15 16 1025.7 - 0.0
28/01:30pm 13.4 7.1 5.6 59 3.8 N 28 32 15 17 1025.9 - 0.0
28/01:20pm 13.6 7.9 4.8 55 4.3 NNW 24 30 13 16 1026.0 - 0.0
28/01:10pm 13.4 8.1 5.1 57 4.0 NNW 22 26 12 14 1026.2 - 0.0
28/01:00pm 13.1 7.0 4.8 57 4.0 NNW 26 30 14 16 1026.3 - 0.0
28/12:50pm 12.6 6.7 5.9 63 3.3 NNW 26 30 14 16 1026.2 - 0.0
28/12:40pm 12.6 6.4 6.2 65 3.2 NNW 28 30 15 16 1026.4 - 0.0
28/12:30pm 12.4 6.2 6.3 66 3.0 NNW 28 30 15 16 1026.4 - 0.0
28/12:20pm 12.4 6.6 6.2 66 3.1 NNW 26 30 14 16 1026.5 - 0.0
28/12:10pm 12.2 7.3 6.8 69 2.7 NNW 22 26 12 14 1026.7 - 0.0
28/12:00pm 11.8 6.3 5.9 67 2.9 NW 24 28 13 15 1027.0 - 0.0
28/11:50am 11.5 6.6 6.7 72 2.4 NW 22 28 12 15 1027.0 - 0.0
28/11:40am 11.2 5.9 6.6 73 2.3 NNW 24 26 13 14 1027.1 - 0.0
28/11:30am 11.1 6.6 7.0 76 2.0 NNW 20 24 11 13 1027.2 - 0.0
28/11:20am 10.6 5.7 6.9 78 1.8 NNW 22 24 12 13 1027.3 - 0.0
28/11:10am 10.5 6.2 7.2 80 1.6 NNW 19 20 10 11 1027.5 - 0.0
28/11:00am 10.4 6.2 5.7 72 2.3 NNW 17 20 9 11 1027.6 - 0.0
28/10:50am 9.7 5.1 5.7 76 1.9 NNW 19 20 10 11 1027.7 - 0.0
28/10:40am 9.2 5.0 5.9 80 1.6 NNW 17 19 9 10 1027.9 - 0.0
28/10:30am 9.0 4.8 5.8 80 1.5 NW 17 19 9 10 1028.0 - 0.0
28/10:20am 8.5 4.3 5.6 82 1.4 NW 17 19 9 10 1028.2 - 0.0
28/10:10am 8.0 3.8 5.8 86 1.0 NW 17 19 9 10 1028.3 - 0.0
28/10:00am 7.9 3.5 4.9 81 1.4 NW 17 19 9 10 1028.3 - 0.0
28/09:50am 8.0 4.0 5.0 81 1.4 NW 15 17 8 9 1028.3 - 0.0
28/09:40am 8.0 4.3 4.7 80 1.5 NNW 13 15 7 8 1028.2 - 0.0
28/09:30am 7.6 4.4 5.1 84 1.2 NNW 11 11 6 6 1028.3 - 0.0
28/09:20am 7.3 4.1 5.2 86 1.0 NNW 11 13 6 7 1028.2 - 0.0
28/09:10am 7.1 4.3 5.3 88 0.8 NNW 9 11 5 6 1028.3 - 0.0
28/09:00am 7.2 4.7 4.6 83 1.2 NNW 7 9 4 5 1028.3 - 0.0
28/08:50am 7.5 5.1 4.3 80 1.5 N 6 7 3 4 1028.2 - 0.0
28/08:40am 7.4 5.5 4.9 84 1.2 ENE 4 4 2 2 1028.3 - 0.0
28/08:30am 6.6 4.2 4.1 84 1.1 ESE 6 7 3 4 1028.3 - 0.0
28/08:20am 6.1 3.5 4.4 89 0.8 ESE 7 7 4 4 1028.2 - 0.0
28/08:10am 5.8 3.2 4.0 88 0.8 ESE 7 7 4 4 1028.2 - 0.0
28/08:00am 5.3 2.6 3.7 89 0.7 ESE 7 7 4 4 1028.1 - 0.0
28/07:50am 5.2 2.5 3.7 90 0.7 SE 7 9 4 5 1028.1 - 0.0
28/07:40am 5.1 2.6 3.7 91 0.6 ESE 6 7 3 4 1028.1 - 0.0
28/07:30am 4.7 2.1 3.2 90 0.6 ESE 6 7 3 4 1027.9 - 0.0
28/07:20am 4.6 1.8 3.4 92 0.5 SE 7 9 4 5 1027.9 - 0.0
28/07:10am 4.5 1.7 2.9 89 0.7 ESE 7 9 4 5 1027.7 - 0.0
28/07:00am 4.5 1.8 2.8 89 0.7 E 6 7 3 4 1027.6 - 0.0
28/06:50am 4.1 1.2 2.8 91 0.6 ESE 7 9 4 5 1027.4 - 0.0
28/06:40am 4.1 1.2 2.7 91 0.6 ESE 7 9 4 5 1027.2 - 0.0
28/06:30am 4.5 1.6 2.7 88 0.8 ESE 7 7 4 4 1027.1 - 0.0
28/06:20am 4.6 1.8 2.3 85 1.0 ESE 6 7 3 4 1027.1 - 0.0
28/06:10am 4.7 1.9 2.2 84 1.1 ESE 6 6 3 3 1027.0 - 0.0
28/06:00am 4.3 1.9 2.0 85 1.0 SE 4 6 2 3 1026.9 - 0.0
28/05:50am 4.1 1.7 2.0 86 0.9 SE 4 4 2 2 1026.8 - 0.0
28/05:40am 4.1 1.3 2.1 87 0.8 SE 6 7 3 4 1026.6 - 0.0
28/05:30am 4.2 1.4 2.2 87 0.8 SE 6 7 3 4 1026.5 - 0.0
28/05:20am 4.3 1.3 2.1 86 0.9 SSE 7 9 4 5 1026.4 - 0.0
28/05:10am 4.2 0.5 2.2 87 0.8 SSE 11 11 6 6 1026.3 - 0.0
28/05:00am 4.2 0.9 2.3 87 0.8 SSE 9 11 5 6 1026.2 - 0.0
28/04:50am 4.1 0.4 2.3 88 0.8 SSE 11 11 6 6 1026.2 - 0.0
28/04:40am 4.1 0.4 2.4 89 0.7 SSE 11 13 6 7 1026.1 - 0.0
28/04:30am 4.0 -0.1 2.4 89 0.7 SSE 13 13 7 7 1026.0 - 0.0
28/04:20am 4.0 -0.1 2.3 89 0.7 SSE 13 13 7 7 1026.0 - 0.0
28/04:10am 3.9 -0.2 2.5 91 0.6 SSE 13 13 7 7 1025.9 - 0.0
28/04:00am 4.1 0.0 2.5 89 0.7 SSE 13 13 7 7 1025.8 - 0.0
28/03:50am 4.3 0.2 2.5 88 0.8 SSE 13 15 7 8 1025.8 - 0.0
28/03:40am 4.3 -0.1 2.5 88 0.8 S 15 15 8 8 1025.9 - 0.0
28/03:30am 4.4 0.0 2.6 88 0.8 SSE 15 15 8 8 1025.8 - 0.0
28/03:20am 4.5 0.1 2.6 87 0.8 SSE 15 17 8 9 1025.7 - 0.0
28/03:10am 4.5 -0.3 2.6 87 0.8 SSE 17 17 9 9 1025.7 - 0.0
28/03:00am 4.4 -0.4 2.6 88 0.8 SSE 17 17 9 9 1025.7 - 0.0
28/02:50am 4.3 -0.5 2.6 89 0.7 SSE 17 19 9 10 1025.8 - 0.0
28/02:40am 4.3 -0.5 2.6 89 0.7 SSE 17 17 9 9 1025.7 - 0.0
28/02:30am 4.4 -0.4 2.7 89 0.7 SSE 17 17 9 9 1025.7 - 0.0
28/02:20am 4.3 -0.5 2.7 89 0.7 S 17 17 9 9 1025.8 - 0.0
28/02:10am 4.2 -0.2 2.7 90 0.6 SSE 15 15 8 8 1025.8 - 0.0
28/02:00am 4.4 -0.4 2.8 89 0.7 SSE 17 19 9 10 1025.8 - 0.0
28/01:50am 4.4 -0.7 2.8 89 0.7 SSE 19 20 10 11 1025.8 - 0.0
28/01:40am 4.4 -1.3 2.8 89 0.7 SSE 22 22 12 12 1025.8 - 0.0
28/01:30am 4.4 -1.3 2.8 89 0.7 SSE 22 24 12 13 1025.9 - 0.0
28/01:20am 4.5 -1.6 2.7 88 0.8 SSE 24 26 13 14 1025.9 - 0.0

Latest Capital City Observations: Canberra | Sydney | Melbourne | Brisbane | Adelaide | Perth | Hobart | Darwin

Other formats

Comma delimited format used in spreadsheet applications
http://www.bom.gov.au/fwo/IDN60903/IDN60903.99763.axf

JavaScript Object Notation format (JSON) in row-major order
http://www.bom.gov.au/fwo/IDN60903/IDN60903.99763.json

Data quality

Most of these data are generated automatically and are frequently updated. Quality checks on data are not normally performed. It is possible for incorrect values to appear. Refer to information at About Latest Weather Observations and please check the disclaimer before using these data.